Dominia — ICFW — position and weather

sailwx.info

Track history (hours):
 
Tides and Currents Weather Stations Pressure Air Temp Water Temp Dewpoint Dewpoint Depression Visibility Wind Speed Wind Dir Waves Ship Positions

Dominia

Last reported at 2017-Apr-28 21:58 UTC. Time now 2017-Apr-28 22:00 UTC.
Position N 39°02' E 009°05'.

Length 176 m; draft 7 m.

Type: Tanker. MMSI: 247273400.

Date/timePositionNaut miles runAvg speedWind from/ knotsBaromVisibWave heightAir tempDewpointWater temp
2017-Apr-28 21:58N 39°02' E 009°05'0 0.1
2017-Apr-28 21:28N 39°02' E 009°05'0 0.0
2017-Apr-28 20:58N 39°02' E 009°05'0 0.0
2017-Apr-28 20:28N 39°02' E 009°05'0 0.0
2017-Apr-28 19:58N 39°02' E 009°05'0 0.0
2017-Apr-28 19:28N 39°02' E 009°05'0 0.0
2017-Apr-28 18:58N 39°02' E 009°05'0 0.1
2017-Apr-28 18:28N 39°02' E 009°05'0 0.1
2017-Apr-28 17:58N 39°02' E 009°05'0 0.1
2017-Apr-28 17:28N 39°02' E 009°05'0 0.0
2017-Apr-28 16:58N 39°02' E 009°05'0 0.1
2017-Apr-28 16:28N 39°02' E 009°05'0 0.1
2017-Apr-28 15:58N 39°02' E 009°05'0 0.0
2017-Apr-28 15:28N 39°02' E 009°05'0 0.1
2017-Apr-28 14:58N 39°02' E 009°05'0 0.1
2017-Apr-28 13:58N 39°02' E 009°05'0 0.0
2017-Apr-28 13:28N 39°02' E 009°05'0 0.0
2017-Apr-28 12:58N 39°02' E 009°05'0 0.1
2017-Apr-28 12:28N 39°02' E 009°05'0 0.1
2017-Apr-28 11:58N 39°02' E 009°05'0 0.0
2017-Apr-28 11:28N 39°02' E 009°05'0 0.1
2017-Apr-28 10:58N 39°02' E 009°05'0 0.0
2017-Apr-28 10:28N 39°02' E 009°05'0 0.0
2017-Apr-28 09:58N 39°02' E 009°05'0 0.0
2017-Apr-28 09:28N 39°02' E 009°05'0 0.0
2017-Apr-28 08:58N 39°02' E 009°05'0 0.0
2017-Apr-28 08:28N 39°02' E 009°05'0 0.0
2017-Apr-28 07:58N 39°02' E 009°05'0 0.0
2017-Apr-28 07:28N 39°02' E 009°05'0 0.0
2017-Apr-28 06:55N 39°02' E 009°05'0 0.0
2017-Apr-28 06:28N 39°02' E 009°05'0 0.0
2017-Apr-28 05:58N 39°02' E 009°05'0 0.0
2017-Apr-28 05:28N 39°02' E 009°05'0 0.0
2017-Apr-28 04:58N 39°02' E 009°05'0 0.0
2017-Apr-28 04:28N 39°02' E 009°05'0 0.0
2017-Apr-28 03:58N 39°02' E 009°05'0 0.1
2017-Apr-28 03:28N 39°02' E 009°05'0 0.0
2017-Apr-28 02:58N 39°02' E 009°05'0 0.1
2017-Apr-28 02:28N 39°02' E 009°05'0 0.0
2017-Apr-28 01:58N 39°02' E 009°05'0 0.0
2017-Apr-28 01:28N 39°02' E 009°05'0 0.1
2017-Apr-28 00:58N 39°02' E 009°05'0 0.0
2017-Apr-28 00:28N 39°02' E 009°05'0 0.0
2017-Apr-27 23:58N 39°02' E 009°05'0 0.0
2017-Apr-27 23:28N 39°02' E 009°05'0 0.0
2017-Apr-27 22:58N 39°02' E 009°05'0 0.0
2017-Apr-27 22:28N 39°02' E 009°05'0 0.1
2017-Apr-27 21:58N 39°02' E 009°05'0 0.1
2017-Apr-27 21:28N 39°02' E 009°05'0 0.2
2017-Apr-27 20:58N 39°03' E 009°05'0 0.1
2017-Apr-27 20:28N 39°03' E 009°05'0 0.0
2017-Apr-27 19:58N 39°03' E 009°05'0 0.0
2017-Apr-27 19:28N 39°03' E 009°05'0 0.0
2017-Apr-27 18:58N 39°03' E 009°05'0 0.0
2017-Apr-27 18:28N 39°03' E 009°05'0 0.0
2017-Apr-27 17:58N 39°03' E 009°05'0 0.0
2017-Apr-27 17:28N 39°03' E 009°05'0 0.0
2017-Apr-27 16:58N 39°03' E 009°05'0 0.0
2017-Apr-27 16:28N 39°03' E 009°05'0 0.1
2017-Apr-27 15:58N 39°03' E 009°05'2 3.3
2017-Apr-27 15:30N 39°01' E 009°06'510.7
2017-Apr-27 15:00N 38°56' E 009°05'612.6
2017-Apr-27 14:30N 38°50' E 009°01'612.5
2017-Apr-27 14:00N 38°45' E 008°56'612.6
2017-Apr-27 13:30N 38°40' E 008°51'612.3
2017-Apr-27 13:00N 38°39' E 008°44'3010.6
2017-Apr-27 10:07N 38°56' E 008°11'312.2
2017-Apr-27 09:54N 38°58' E 008°08'274 7.6
2017-Apr-25 21:54N 42°56' E 005°10'5 7.2
2017-Apr-25 21:11N 43°00' E 005°06'9 7.0
2017-Apr-25 19:55N 43°08' E 005°02'1110.1
2017-Apr-25 18:49N 43°19' E 004°59'310.6
2017-Apr-25 18:30N 43°22' E 004°58'2 3.7
2017-Apr-25 17:57N 43°24' E 004°60'0 0.0
2017-Apr-25 17:15N 43°24' E 004°60'0 0.0
2017-Apr-25 16:57N 43°24' E 004°60'0 0.0
2017-Apr-25 16:27N 43°24' E 004°60'0 0.0
2017-Apr-25 15:54N 43°24' E 004°60'0 0.0
2017-Apr-25 15:27N 43°24' E 004°60'0 0.0
2017-Apr-25 15:00N 43°24' E 004°60'0 0.0
2017-Apr-25 14:21N 43°24' E 004°60'0 0.0
2017-Apr-25 13:27N 43°24' E 004°60'0 0.0
2017-Apr-25 12:57N 43°24' E 004°60'0 0.0
2017-Apr-25 12:27N 43°24' E 004°60'0 0.0
2017-Apr-25 11:57N 43°24' E 004°60'0 0.0
2017-Apr-25 11:24N 43°24' E 004°60'0 0.0
2017-Apr-25 11:00N 43°24' E 004°60'0 0.0
2017-Apr-25 10:30N 43°24' E 004°60'0 0.0
2017-Apr-25 09:54N 43°24' E 004°60'0 0.0
2017-Apr-25 09:30N 43°24' E 004°60'0 0.0
2017-Apr-25 08:57N 43°24' E 004°60'0 0.0
2017-Apr-25 08:27N 43°24' E 004°60'0 0.0
2017-Apr-25 07:57N 43°24' E 004°60'0 0.0
2017-Apr-25 07:30N 43°24' E 004°60'0 0.0
2017-Apr-25 06:57N 43°24' E 004°60'0 0.0
2017-Apr-25 06:27N 43°24' E 004°60'0 0.0
2017-Apr-25 05:57N 43°24' E 004°60'0 0.0
2017-Apr-25 05:27N 43°24' E 004°60'0 0.0
2017-Apr-25 04:57N 43°24' E 004°60'0 0.0
2017-Apr-25 04:27N 43°24' E 004°60'0 0.0
2017-Apr-25 03:57N 43°24' E 004°60'0 0.0
2017-Apr-25 03:30N 43°24' E 004°60'0 0.0
2017-Apr-25 02:57N 43°24' E 004°60'0 0.0
2017-Apr-25 02:27N 43°24' E 004°60'0 0.0
2017-Apr-25 01:54N 43°24' E 004°60'0 0.0
2017-Apr-25 01:30N 43°24' E 004°60'0 0.0
2017-Apr-25 00:51N 43°24' E 004°60'0 0.0
2017-Apr-25 00:27N 43°24' E 004°60'0 0.0
2017-Apr-24 23:57N 43°24' E 004°60'0 0.0
2017-Apr-24 23:27N 43°24' E 004°60'0 0.0
2017-Apr-24 23:00N 43°24' E 004°60'0 0.0
2017-Apr-24 22:27N 43°24' E 004°60'0 0.0
2017-Apr-24 21:57N 43°24' E 004°60'0 0.0
2017-Apr-24 21:30N 43°24' E 004°60'0 0.0
2017-Apr-24 20:57N 43°24' E 004°60'0 0.0
2017-Apr-24 20:30N 43°24' E 004°60'0 0.0
2017-Apr-24 19:51N 43°24' E 004°60'0 0.0
2017-Apr-24 19:30N 43°24' E 004°60'0 0.0
2017-Apr-24 18:57N 43°24' E 004°60'0 0.0
2017-Apr-24 18:18N 43°24' E 004°60'0 0.0
2017-Apr-24 17:57N 43°24' E 004°60'0 0.0
2017-Apr-24 17:30N 43°24' E 004°60'0 0.0
2017-Apr-24 16:51N 43°24' E 004°60'0 0.0
2017-Apr-24 16:12N 43°24' E 004°60'0 0.0
2017-Apr-24 15:57N 43°24' E 004°60'0 0.0
2017-Apr-24 15:21N 43°24' E 004°60'0 0.0
2017-Apr-24 15:00N 43°24' E 004°60'0 0.0
2017-Apr-24 14:27N 43°24' E 004°60'0 0.0
2017-Apr-24 13:30N 43°24' E 004°60'0 0.0
2017-Apr-24 13:00N 43°24' E 004°60'0 0.0
2017-Apr-24 12:30N 43°24' E 004°60'0 0.0
2017-Apr-24 12:00N 43°24' E 004°60'0 0.0
2017-Apr-24 11:30N 43°24' E 004°60'0 0.0
2017-Apr-24 10:51N 43°24' E 004°60'0 0.0
2017-Apr-24 10:30N 43°24' E 004°60'0 0.0
2017-Apr-24 10:00N 43°24' E 004°60'0 0.0
2017-Apr-24 09:30N 43°24' E 004°60'0 0.0
2017-Apr-24 09:00N 43°24' E 004°60'0 0.0
2017-Apr-24 08:30N 43°24' E 004°60'0 0.0
2017-Apr-24 08:00N 43°24' E 004°60'0 0.0
2017-Apr-24 07:27N 43°24' E 004°60'0 0.0
2017-Apr-24 07:00N 43°24' E 004°60'0 0.0
2017-Apr-24 06:30N 43°24' E 004°60'0 0.0
2017-Apr-24 06:00N 43°24' E 004°60'0 0.0
2017-Apr-24 05:30N 43°24' E 004°60'0 0.0
2017-Apr-24 05:00N 43°24' E 004°60'0 0.0
2017-Apr-24 04:27N 43°24' E 004°60'0 0.0
2017-Apr-24 03:51N 43°24' E 004°60'0 0.0
2017-Apr-24 03:30N 43°24' E 004°60'0 0.0
2017-Apr-24 03:00N 43°24' E 004°60'0 0.0
2017-Apr-24 02:30N 43°24' E 004°60'0 0.0
2017-Apr-24 02:00N 43°24' E 004°60'0 0.0
2017-Apr-24 01:27N 43°24' E 004°60'0 0.0
2017-Apr-24 01:00N 43°24' E 004°60'0 0.0
2017-Apr-24 00:21N 43°24' E 004°60'0 0.0
2017-Apr-23 23:57N 43°24' E 004°60'0 0.0
2017-Apr-23 23:27N 43°24' E 004°60'0 0.0
2017-Apr-23 22:57N 43°24' E 004°60'0 0.0
2017-Apr-23 22:21N 43°24' E 004°60'0 0.0
2017-Apr-23 21:57N 43°24' E 004°60'0 0.0
2017-Apr-23 21:27N 43°24' E 004°60'0 0.0
2017-Apr-23 20:57N 43°24' E 004°60'0 0.0
2017-Apr-23 20:27N 43°24' E 004°60'0 0.0
2017-Apr-23 20:00N 43°24' E 004°60'0 0.0
2017-Apr-23 19:27N 43°24' E 004°60'0 0.0
2017-Apr-23 19:00N 43°24' E 004°60'0 0.0
2017-Apr-23 18:30N 43°24' E 004°60'0 0.0
2017-Apr-23 18:00N 43°24' E 004°60'0 0.0
2017-Apr-23 17:30N 43°24' E 004°60'0 0.0
2017-Apr-23 16:54N 43°24' E 004°60'0 0.0
2017-Apr-23 16:27N 43°24' E 004°60'0 0.0
2017-Apr-23 16:00N 43°24' E 004°60'0 0.0
2017-Apr-23 15:27N 43°24' E 004°60'0 0.0
2017-Apr-23 14:57N 43°24' E 004°60'0 0.0
2017-Apr-23 14:00N 43°24' E 004°60'0 0.0
2017-Apr-23 13:27N 43°24' E 004°60'0 0.0
2017-Apr-23 12:57N 43°24' E 004°60'0 0.0
2017-Apr-23 12:27N 43°24' E 004°60'0 0.0
2017-Apr-23 12:00N 43°24' E 004°60'0 0.0
2017-Apr-23 11:27N 43°24' E 004°60'0 0.0
2017-Apr-23 10:57N 43°24' E 004°60'0 0.0
2017-Apr-23 10:27N 43°24' E 004°60'0 0.0
2017-Apr-23 10:00N 43°24' E 004°60'0 0.0
2017-Apr-23 09:27N 43°24' E 004°60'0 0.0
2017-Apr-23 08:54N 43°24' E 004°60'0 0.0
2017-Apr-23 08:27N 43°24' E 004°60'0 0.0
2017-Apr-23 08:00N 43°24' E 004°60'0 0.0
2017-Apr-23 07:21N 43°24' E 004°60'0 0.0
2017-Apr-23 06:57N 43°24' E 004°60'0 0.0
2017-Apr-23 06:27N 43°24' E 004°60'0 0.0
2017-Apr-23 05:51N 43°24' E 004°60'0 0.0
2017-Apr-23 05:27N 43°24' E 004°60'0 0.0
2017-Apr-23 04:57N 43°24' E 004°60'0 0.0
2017-Apr-23 04:27N 43°24' E 004°60'0 0.0
2017-Apr-23 04:00N 43°24' E 004°60'0 0.5
2017-Apr-23 03:29N 43°24' E 004°59'3 6.5
2017-Apr-23 03:00N 43°21' E 004°59'3 5.3
2017-Apr-23 02:30N 43°18' E 004°60'1 2.6
2017-Apr-23 02:00N 43°17' E 005°00'2 4.6
2017-Apr-23 01:31N 43°15' E 005°01'3 4.7
2017-Apr-23 00:55N 43°12' E 005°02'1 3.5
2017-Apr-23 00:30N 43°11' E 005°02'2 2.1
2017-Apr-22 23:31N 43°13' E 005°02'1 4.1
2017-Apr-22 23:21N 43°12' E 005°02'3 7.8
2017-Apr-22 23:00N 43°09' E 005°03'1213.1
2017-Apr-22 22:06N 42°58' E 005°07'2612.8
2017-Apr-22 20:07N 42°33' E 005°16'2713.4
2017-Apr-22 18:07N 42°08' E 005°25'2814.1
2017-Apr-22 16:07N 41°40' E 005°34'2713.6
2017-Apr-22 14:08N 41°14' E 005°44'2713.6
2017-Apr-22 12:08N 40°48' E 005°53'  
2017-Apr-19 18:05N 37°02' E 013°36'113.6
2017-Apr-19 18:00N 37°02' E 013°37'713.4
2017-Apr-19 17:31N 36°59' E 013°44'713.4
2017-Apr-19 17:00N 36°56' E 013°52'713.3
2017-Apr-19 16:30N 36°53' E 013°60'713.1
2017-Apr-19 16:00N 36°51' E 014°07'713.4
2017-Apr-19 15:30N 36°48' E 014°15'713.5
2017-Apr-19 15:00N 36°45' E 014°22'713.4
2017-Apr-19 14:30N 36°42' E 014°30'1313.0
2017-Apr-19 13:31N 36°36' E 014°44'712.7
2017-Apr-19 12:58N 36°34' E 014°52'612.6
2017-Apr-19 12:31N 36°34' E 014°59'1212.4
2017-Apr-19 11:34N 36°38' E 015°13'313.7
2017-Apr-19 11:20N 36°40' E 015°15'514.0
2017-Apr-19 11:00N 36°44' E 015°18'  
Track history (hours):
 
Tides and Currents Weather Stations Pressure Air Temp Water Temp Dewpoint Dewpoint Depression Visibility Wind Speed Wind Dir Waves Ship Positions

Dominia

Last reported at 2017-Apr-28 21:58 UTC. Time now 2017-Apr-28 22:00 UTC.
Position N 39°02' E 009°05'.

Length 176 m; draft 7 m.

Type: Tanker. MMSI: 247273400.

Date/timePositionNaut miles runAvg speedWind from/ knotsBaromVisibWave heightAir tempDewpointWater temp
2017-Apr-28 21:58N 39°02' E 009°05'0 0.1
2017-Apr-28 21:28N 39°02' E 009°05'0 0.0
2017-Apr-28 20:58N 39°02' E 009°05'0 0.0
2017-Apr-28 20:28N 39°02' E 009°05'0 0.0
2017-Apr-28 19:58N 39°02' E 009°05'0 0.0
2017-Apr-28 19:28N 39°02' E 009°05'0 0.0
2017-Apr-28 18:58N 39°02' E 009°05'0 0.1
2017-Apr-28 18:28N 39°02' E 009°05'0 0.1
2017-Apr-28 17:58N 39°02' E 009°05'0 0.1
2017-Apr-28 17:28N 39°02' E 009°05'0 0.0
2017-Apr-28 16:58N 39°02' E 009°05'0 0.1
2017-Apr-28 16:28N 39°02' E 009°05'0 0.1
2017-Apr-28 15:58N 39°02' E 009°05'0 0.0
2017-Apr-28 15:28N 39°02' E 009°05'0 0.1
2017-Apr-28 14:58N 39°02' E 009°05'0 0.1
2017-Apr-28 13:58N 39°02' E 009°05'0 0.0
2017-Apr-28 13:28N 39°02' E 009°05'0 0.0
2017-Apr-28 12:58N 39°02' E 009°05'0 0.1
2017-Apr-28 12:28N 39°02' E 009°05'0 0.1
2017-Apr-28 11:58N 39°02' E 009°05'0 0.0
2017-Apr-28 11:28N 39°02' E 009°05'0 0.1
2017-Apr-28 10:58N 39°02' E 009°05'0 0.0
2017-Apr-28 10:28N 39°02' E 009°05'0 0.0
2017-Apr-28 09:58N 39°02' E 009°05'0 0.0
2017-Apr-28 09:28N 39°02' E 009°05'0 0.0
2017-Apr-28 08:58N 39°02' E 009°05'0 0.0
2017-Apr-28 08:28N 39°02' E 009°05'0 0.0
2017-Apr-28 07:58N 39°02' E 009°05'0 0.0
2017-Apr-28 07:28N 39°02' E 009°05'0 0.0
2017-Apr-28 06:55N 39°02' E 009°05'0 0.0
2017-Apr-28 06:28N 39°02' E 009°05'0 0.0
2017-Apr-28 05:58N 39°02' E 009°05'0 0.0
2017-Apr-28 05:28N 39°02' E 009°05'0 0.0
2017-Apr-28 04:58N 39°02' E 009°05'0 0.0
2017-Apr-28 04:28N 39°02' E 009°05'0 0.0
2017-Apr-28 03:58N 39°02' E 009°05'0 0.1
2017-Apr-28 03:28N 39°02' E 009°05'0 0.0
2017-Apr-28 02:58N 39°02' E 009°05'0 0.1
2017-Apr-28 02:28N 39°02' E 009°05'0 0.0
2017-Apr-28 01:58N 39°02' E 009°05'0 0.0
2017-Apr-28 01:28N 39°02' E 009°05'0 0.1
2017-Apr-28 00:58N 39°02' E 009°05'0 0.0
2017-Apr-28 00:28N 39°02' E 009°05'0 0.0
2017-Apr-27 23:58N 39°02' E 009°05'0 0.0
2017-Apr-27 23:28N 39°02' E 009°05'0 0.0
2017-Apr-27 22:58N 39°02' E 009°05'0 0.0
2017-Apr-27 22:28N 39°02' E 009°05'0 0.1
2017-Apr-27 21:58N 39°02' E 009°05'0 0.1
2017-Apr-27 21:28N 39°02' E 009°05'0 0.2
2017-Apr-27 20:58N 39°03' E 009°05'0 0.1
2017-Apr-27 20:28N 39°03' E 009°05'0 0.0
2017-Apr-27 19:58N 39°03' E 009°05'0 0.0
2017-Apr-27 19:28N 39°03' E 009°05'0 0.0
2017-Apr-27 18:58N 39°03' E 009°05'0 0.0
2017-Apr-27 18:28N 39°03' E 009°05'0 0.0
2017-Apr-27 17:58N 39°03' E 009°05'0 0.0
2017-Apr-27 17:28N 39°03' E 009°05'0 0.0
2017-Apr-27 16:58N 39°03' E 009°05'0 0.0
2017-Apr-27 16:28N 39°03' E 009°05'0 0.1
2017-Apr-27 15:58N 39°03' E 009°05'2 3.3
2017-Apr-27 15:30N 39°01' E 009°06'510.7
2017-Apr-27 15:00N 38°56' E 009°05'612.6
2017-Apr-27 14:30N 38°50' E 009°01'612.5
2017-Apr-27 14:00N 38°45' E 008°56'612.6
2017-Apr-27 13:30N 38°40' E 008°51'612.3
2017-Apr-27 13:00N 38°39' E 008°44'3010.6
2017-Apr-27 10:07N 38°56' E 008°11'312.2
2017-Apr-27 09:54N 38°58' E 008°08'274 7.6
2017-Apr-25 21:54N 42°56' E 005°10'5 7.2
2017-Apr-25 21:11N 43°00' E 005°06'9 7.0
2017-Apr-25 19:55N 43°08' E 005°02'1110.1
2017-Apr-25 18:49N 43°19' E 004°59'310.6
2017-Apr-25 18:30N 43°22' E 004°58'2 3.7
2017-Apr-25 17:57N 43°24' E 004°60'0 0.0
2017-Apr-25 17:15N 43°24' E 004°60'0 0.0
2017-Apr-25 16:57N 43°24' E 004°60'0 0.0
2017-Apr-25 16:27N 43°24' E 004°60'0 0.0
2017-Apr-25 15:54N 43°24' E 004°60'0 0.0
2017-Apr-25 15:27N 43°24' E 004°60'0 0.0
2017-Apr-25 15:00N 43°24' E 004°60'0 0.0
2017-Apr-25 14:21N 43°24' E 004°60'0 0.0
2017-Apr-25 13:27N 43°24' E 004°60'0 0.0
2017-Apr-25 12:57N 43°24' E 004°60'0 0.0
2017-Apr-25 12:27N 43°24' E 004°60'0 0.0
2017-Apr-25 11:57N 43°24' E 004°60'0 0.0
2017-Apr-25 11:24N 43°24' E 004°60'0 0.0
2017-Apr-25 11:00N 43°24' E 004°60'0 0.0
2017-Apr-25 10:30N 43°24' E 004°60'0 0.0
2017-Apr-25 09:54N 43°24' E 004°60'0 0.0
2017-Apr-25 09:30N 43°24' E 004°60'0 0.0
2017-Apr-25 08:57N 43°24' E 004°60'0 0.0
2017-Apr-25 08:27N 43°24' E 004°60'0 0.0
2017-Apr-25 07:57N 43°24' E 004°60'0 0.0
2017-Apr-25 07:30N 43°24' E 004°60'0 0.0
2017-Apr-25 06:57N 43°24' E 004°60'0 0.0
2017-Apr-25 06:27N 43°24' E 004°60'0 0.0
2017-Apr-25 05:57N 43°24' E 004°60'0 0.0
2017-Apr-25 05:27N 43°24' E 004°60'0 0.0
2017-Apr-25 04:57N 43°24' E 004°60'0 0.0
2017-Apr-25 04:27N 43°24' E 004°60'0 0.0
2017-Apr-25 03:57N 43°24' E 004°60'0 0.0
2017-Apr-25 03:30N 43°24' E 004°60'0 0.0
2017-Apr-25 02:57N 43°24' E 004°60'0 0.0
2017-Apr-25 02:27N 43°24' E 004°60'0 0.0
2017-Apr-25 01:54N 43°24' E 004°60'0 0.0
2017-Apr-25 01:30N 43°24' E 004°60'0 0.0
2017-Apr-25 00:51N 43°24' E 004°60'0 0.0
2017-Apr-25 00:27N 43°24' E 004°60'0 0.0
2017-Apr-24 23:57N 43°24' E 004°60'0 0.0
2017-Apr-24 23:27N 43°24' E 004°60'0 0.0
2017-Apr-24 23:00N 43°24' E 004°60'0 0.0
2017-Apr-24 22:27N 43°24' E 004°60'0 0.0
2017-Apr-24 21:57N 43°24' E 004°60'0 0.0
2017-Apr-24 21:30N 43°24' E 004°60'0 0.0
2017-Apr-24 20:57N 43°24' E 004°60'0 0.0
2017-Apr-24 20:30N 43°24' E 004°60'0 0.0
2017-Apr-24 19:51N 43°24' E 004°60'0 0.0
2017-Apr-24 19:30N 43°24' E 004°60'0 0.0
2017-Apr-24 18:57N 43°24' E 004°60'0 0.0
2017-Apr-24 18:18N 43°24' E 004°60'0 0.0
2017-Apr-24 17:57N 43°24' E 004°60'0 0.0
2017-Apr-24 17:30N 43°24' E 004°60'0 0.0
2017-Apr-24 16:51N 43°24' E 004°60'0 0.0
2017-Apr-24 16:12N 43°24' E 004°60'0 0.0
2017-Apr-24 15:57N 43°24' E 004°60'0 0.0
2017-Apr-24 15:21N 43°24' E 004°60'0 0.0
2017-Apr-24 15:00N 43°24' E 004°60'0 0.0
2017-Apr-24 14:27N 43°24' E 004°60'0 0.0
2017-Apr-24 13:30N 43°24' E 004°60'0 0.0
2017-Apr-24 13:00N 43°24' E 004°60'0 0.0
2017-Apr-24 12:30N 43°24' E 004°60'0 0.0
2017-Apr-24 12:00N 43°24' E 004°60'0 0.0
2017-Apr-24 11:30N 43°24' E 004°60'0 0.0
2017-Apr-24 10:51N 43°24' E 004°60'0 0.0
2017-Apr-24 10:30N 43°24' E 004°60'0 0.0
2017-Apr-24 10:00N 43°24' E 004°60'0 0.0
2017-Apr-24 09:30N 43°24' E 004°60'0 0.0
2017-Apr-24 09:00N 43°24' E 004°60'0 0.0
2017-Apr-24 08:30N 43°24' E 004°60'0 0.0
2017-Apr-24 08:00N 43°24' E 004°60'0 0.0
2017-Apr-24 07:27N 43°24' E 004°60'0 0.0
2017-Apr-24 07:00N 43°24' E 004°60'0 0.0
2017-Apr-24 06:30N 43°24' E 004°60'0 0.0
2017-Apr-24 06:00N 43°24' E 004°60'0 0.0
2017-Apr-24 05:30N 43°24' E 004°60'0 0.0
2017-Apr-24 05:00N 43°24' E 004°60'0 0.0
2017-Apr-24 04:27N 43°24' E 004°60'0 0.0
2017-Apr-24 03:51N 43°24' E 004°60'0 0.0
2017-Apr-24 03:30N 43°24' E 004°60'0 0.0
2017-Apr-24 03:00N 43°24' E 004°60'0 0.0
2017-Apr-24 02:30N 43°24' E 004°60'0 0.0
2017-Apr-24 02:00N 43°24' E 004°60'0 0.0
2017-Apr-24 01:27N 43°24' E 004°60'0 0.0
2017-Apr-24 01:00N 43°24' E 004°60'0 0.0
2017-Apr-24 00:21N 43°24' E 004°60'0 0.0
2017-Apr-23 23:57N 43°24' E 004°60'0 0.0
2017-Apr-23 23:27N 43°24' E 004°60'0 0.0
2017-Apr-23 22:57N 43°24' E 004°60'0 0.0
2017-Apr-23 22:21N 43°24' E 004°60'0 0.0
2017-Apr-23 21:57N 43°24' E 004°60'0 0.0
2017-Apr-23 21:27N 43°24' E 004°60'0 0.0
2017-Apr-23 20:57N 43°24' E 004°60'0 0.0
2017-Apr-23 20:27N 43°24' E 004°60'0 0.0
2017-Apr-23 20:00N 43°24' E 004°60'0 0.0
2017-Apr-23 19:27N 43°24' E 004°60'0 0.0
2017-Apr-23 19:00N 43°24' E 004°60'0 0.0
2017-Apr-23 18:30N 43°24' E 004°60'0 0.0
2017-Apr-23 18:00N 43°24' E 004°60'0 0.0
2017-Apr-23 17:30N 43°24' E 004°60'0 0.0
2017-Apr-23 16:54N 43°24' E 004°60'0 0.0
2017-Apr-23 16:27N 43°24' E 004°60'0 0.0
2017-Apr-23 16:00N 43°24' E 004°60'0 0.0
2017-Apr-23 15:27N 43°24' E 004°60'0 0.0
2017-Apr-23 14:57N 43°24' E 004°60'0 0.0
2017-Apr-23 14:00N 43°24' E 004°60'0 0.0
2017-Apr-23 13:27N 43°24' E 004°60'0 0.0
2017-Apr-23 12:57N 43°24' E 004°60'0 0.0
2017-Apr-23 12:27N 43°24' E 004°60'0 0.0
2017-Apr-23 12:00N 43°24' E 004°60'0 0.0
2017-Apr-23 11:27N 43°24' E 004°60'0 0.0
2017-Apr-23 10:57N 43°24' E 004°60'0 0.0
2017-Apr-23 10:27N 43°24' E 004°60'0 0.0
2017-Apr-23 10:00N 43°24' E 004°60'0 0.0
2017-Apr-23 09:27N 43°24' E 004°60'0 0.0
2017-Apr-23 08:54N 43°24' E 004°60'0 0.0
2017-Apr-23 08:27N 43°24' E 004°60'0 0.0
2017-Apr-23 08:00N 43°24' E 004°60'0 0.0
2017-Apr-23 07:21N 43°24' E 004°60'0 0.0
2017-Apr-23 06:57N 43°24' E 004°60'0 0.0
2017-Apr-23 06:27N 43°24' E 004°60'0 0.0
2017-Apr-23 05:51N 43°24' E 004°60'0 0.0
2017-Apr-23 05:27N 43°24' E 004°60'0 0.0
2017-Apr-23 04:57N 43°24' E 004°60'0 0.0
2017-Apr-23 04:27N 43°24' E 004°60'0 0.0
2017-Apr-23 04:00N 43°24' E 004°60'0 0.5
2017-Apr-23 03:29N 43°24' E 004°59'3 6.5
2017-Apr-23 03:00N 43°21' E 004°59'3 5.3
2017-Apr-23 02:30N 43°18' E 004°60'1 2.6
2017-Apr-23 02:00N 43°17' E 005°00'2 4.6
2017-Apr-23 01:31N 43°15' E 005°01'3 4.7
2017-Apr-23 00:55N 43°12' E 005°02'1 3.5
2017-Apr-23 00:30N 43°11' E 005°02'2 2.1
2017-Apr-22 23:31N 43°13' E 005°02'1 4.1
2017-Apr-22 23:21N 43°12' E 005°02'3 7.8
2017-Apr-22 23:00N 43°09' E 005°03'1213.1
2017-Apr-22 22:06N 42°58' E 005°07'2612.8
2017-Apr-22 20:07N 42°33' E 005°16'2713.4
2017-Apr-22 18:07N 42°08' E 005°25'2814.1
2017-Apr-22 16:07N 41°40' E 005°34'2713.6
2017-Apr-22 14:08N 41°14' E 005°44'2713.6
2017-Apr-22 12:08N 40°48' E 005°53'  
2017-Apr-19 18:05N 37°02' E 013°36'113.6
2017-Apr-19 18:00N 37°02' E 013°37'713.4
2017-Apr-19 17:31N 36°59' E 013°44'713.4
2017-Apr-19 17:00N 36°56' E 013°52'713.3
2017-Apr-19 16:30N 36°53' E 013°60'713.1
2017-Apr-19 16:00N 36°51' E 014°07'713.4
2017-Apr-19 15:30N 36°48' E 014°15'713.5
2017-Apr-19 15:00N 36°45' E 014°22'713.4
2017-Apr-19 14:30N 36°42' E 014°30'1313.0
2017-Apr-19 13:31N 36°36' E 014°44'712.7
2017-Apr-19 12:58N 36°34' E 014°52'612.6
2017-Apr-19 12:31N 36°34' E 014°59'1212.4
2017-Apr-19 11:34N 36°38' E 015°13'313.7
2017-Apr-19 11:20N 36°40' E 015°15'514.0
2017-Apr-19 11:00N 36°44' E 015°18'  

Dump ship's entire track history